Latest Weather Observations for Penrith

IDN60801

Issued at 11:32 pm EST Saturday 27 May 2017 (issued every 30 minutes, with the page automatically refreshed every 10 minutes)

About weather observations | Map of weather stations | Latest weather observations for NSW | Other Formats
Station Details ID: 067113 Name: PENRITH LAKES AWS Lat: -33.72 Lon: 150.68 Height: 24.7 m
Data from the previous 72 hours. | See also: Recent months at Penrith
Date/Time
EST
Temp
°C
App
Temp
°C
Dew
Point
°C
Rel
Hum
%
Delta-T
°C
Wind Press
QNH
hPa
Press
MSL
hPa
Rain since
9am
mm
Dir  Spd
km/h
Gust
km/h
Spd
kts
Gust
kts
27/11:30pm 10.7 10.5 10.4 98 0.2 S 2 4 1 2 - - 0.0
27/11:00pm 10.6 10.7 10.3 98 0.2 CALM 0 2 0 1 - - 0.0
27/10:30pm 11.3 11.3 11.0 98 0.2 WNW 2 4 1 2 - - 0.0
27/10:00pm 11.5 11.1 11.2 98 0.2 WNW 4 6 2 3 - - 0.0
27/09:30pm 12.1 12.7 11.8 98 0.2 CALM 0 0 0 0 - - 0.0
27/09:00pm 12.2 12.8 11.9 98 0.2 CALM 0 2 0 1 - - 0.0
27/08:30pm 12.9 13.7 12.6 98 0.2 CALM 0 0 0 0 - - 0.0
27/08:00pm 12.9 13.3 12.6 98 0.2 WNW 2 4 1 2 - - 0.0
27/07:30pm 13.3 13.8 12.8 97 0.3 WNW 2 4 1 2 - - 0.0
27/07:00pm 13.6 13.5 12.2 91 0.8 W 4 4 2 2 - - 0.0
27/06:30pm 14.2 15.1 12.9 92 0.7 CALM 0 0 0 0 - - 0.0
27/06:00pm 14.6 14.8 13.0 90 0.9 SW 4 6 2 3 - - 0.0
27/05:30pm 15.7 15.8 12.6 82 1.7 WSW 4 4 2 2 - - 0.0
27/05:00pm 17.2 17.4 12.9 76 2.4 N 4 4 2 2 - - 0.0
27/04:30pm 18.9 18.4 12.2 65 3.7 NNE 6 9 3 5 - - 0.0
27/04:00pm 19.8 19.2 12.3 62 4.2 NE 7 13 4 7 - - 0.0
27/03:30pm 20.2 19.2 12.4 61 4.4 NE 9 13 5 7 - - 0.0
27/03:00pm 20.5 19.6 12.5 60 4.5 N 9 13 5 7 - - 0.0
27/02:30pm 20.3 19.2 12.0 59 4.6 NNE 9 15 5 8 - - 0.0
27/02:00pm 20.6 19.9 12.1 58 4.8 NNE 7 15 4 8 - - 0.0
27/01:30pm 20.4 19.0 12.1 59 4.6 N 11 17 6 9 - - 0.0
27/01:00pm 20.4 18.9 11.9 58 4.7 NNE 11 15 6 8 - - 0.0
27/12:30pm 18.8 17.8 12.3 66 3.6 NNE 9 13 5 7 - - 0.0
27/12:00pm 19.2 19.2 12.5 65 3.8 NE 4 13 2 7 - - 0.0
27/11:30am 18.9 19.1 13.1 69 3.3 NNW 4 6 2 3 - - 0.0
27/11:00am 17.6 17.6 12.5 72 2.8 NNW 4 6 2 3 - - 0.0
27/10:30am 17.0 17.2 12.9 77 2.3 NW 4 4 2 2 - - 0.0
27/10:00am 15.7 16.5 12.5 81 1.8 CALM 0 4 0 2 - - 0.0
27/09:30am 14.2 15.0 12.6 90 0.9 CALM 0 0 0 0 - - 0.0
27/09:00am 13.4 14.4 13.1 98 0.2 CALM 0 4 0 2 - - 0.0
27/08:30am 11.5 11.9 11.2 98 0.2 CALM 0 4 0 2 - - 0.0
27/08:00am 11.4 11.8 11.1 98 0.2 CALM 0 0 0 0 - - 0.0
27/07:30am 10.2 9.8 9.9 98 0.2 SW 2 2 1 1 - - 0.0
27/07:00am 10.1 9.3 9.8 98 0.2 SSW 4 6 2 3 - - 0.0
27/06:30am 9.6 8.7 9.3 98 0.1 ENE 4 7 2 4 - - 0.0
27/06:00am 10.0 10.0 9.7 98 0.2 CALM 0 0 0 0 - - 0.0
27/05:30am 9.4 8.8 9.1 98 0.1 E 2 7 1 4 - - 0.0
27/05:00am 10.1 9.3 9.8 98 0.2 NNE 4 9 2 5 - - 0.0
27/04:30am 10.0 9.2 9.7 98 0.2 N 4 4 2 2 - - 0.0
27/04:00am 10.0 10.0 9.7 98 0.2 CALM 0 0 0 0 - - 0.0
27/03:30am 10.1 9.3 9.8 98 0.2 SE 4 6 2 3 - - 0.0
27/03:00am 9.7 9.2 9.4 98 0.1 SSW 2 4 1 2 - - 0.0
27/02:30am 9.9 9.8 9.6 98 0.1 CALM 0 0 0 0 - - 0.0
27/02:00am 10.5 10.2 10.2 98 0.2 E 2 2 1 1 - - 0.0
27/01:30am 10.6 10.4 10.3 98 0.2 SE 2 6 1 3 - - 0.0
27/01:00am 11.5 11.5 11.2 98 0.2 SE 2 4 1 2 - - 0.0
27/12:30am 11.8 11.5 11.5 98 0.2 SE 4 4 2 2 - - 0.0
27/12:00am 11.4 11.4 11.1 98 0.2 ESE 2 6 1 3 - - 0.0
 
Date/Time
EST
Temp
°C
App
Temp
°C
Dew
Point
°C
Rel
Hum
%
Delta-T
°C
Wind Press
QNH
hPa
Press
MSL
hPa
Rain since
9am
mm
Dir  Spd
km/h
Gust
km/h
Spd
kts
Gust
kts
26/11:30pm 12.0 12.5 11.7 98 0.2 CALM 0 0 0 0 - - 0.0
26/11:00pm 11.7 12.1 11.4 98 0.2 CALM 0 0 0 0 - - 0.0
26/10:30pm 12.2 12.8 11.9 98 0.2 CALM 0 0 0 0 - - 0.0
26/10:00pm 12.5 12.4 12.2 98 0.2 SSE 4 4 2 2 - - 0.0
26/09:30pm 12.2 12.8 11.9 98 0.2 CALM 0 0 0 0 - - 0.0
26/09:00pm 12.7 13.5 12.4 98 0.2 CALM 0 0 0 0 - - 0.0
26/08:30pm 12.6 13.1 11.5 93 0.6 CALM 0 0 0 0 - - 0.0
26/08:00pm 13.1 13.7 11.8 92 0.7 CALM 0 2 0 1 - - 0.0
26/07:30pm 14.0 14.2 12.0 88 1.1 WSW 2 4 1 2 - - 0.0
26/07:00pm 14.6 14.4 11.9 84 1.5 WSW 4 6 2 3 - - 0.0
26/06:30pm 15.5 14.7 11.1 75 2.4 SSW 6 6 3 3 - - 0.0
26/06:00pm 16.2 15.8 11.2 72 2.7 SSW 4 6 2 3 - - 0.0
26/05:30pm 17.1 15.8 11.2 68 3.2 SE 9 15 5 8 - - 0.0
26/05:00pm 17.6 16.3 11.2 66 3.5 SE 9 13 5 7 - - 0.0
26/04:30pm 18.3 17.3 10.4 60 4.2 SSE 6 7 3 4 - - 0.0
26/04:00pm 18.9 18.0 10.5 58 4.5 SE 6 9 3 5 - - 0.0
26/03:30pm 20.1 19.1 10.2 53 5.3 SSE 6 9 3 5 - - 0.0
26/03:00pm 20.2 18.9 10.0 52 5.5 S 7 11 4 6 - - 0.0
26/02:30pm 19.8 18.1 10.0 53 5.3 SSE 9 13 5 7 - - 0.0
26/02:00pm 19.9 18.7 10.3 54 5.2 SSE 7 15 4 8 - - 0.0
26/01:30pm 19.8 18.5 10.0 53 5.3 SSE 7 15 4 8 - - 0.0
26/01:00pm 19.6 18.0 10.3 55 5.0 S 9 15 5 8 - - 0.0
26/12:30pm 19.3 17.3 10.0 55 5.0 S 11 17 6 9 - - 0.0
26/12:00pm 19.1 18.4 10.1 56 4.8 NW 4 6 2 3 - - 0.0
26/11:30am 17.6 16.9 10.0 61 4.0 NW 4 7 2 4 - - 0.0
26/11:00am 16.3 15.4 9.3 63 3.6 W 4 6 2 3 - - 0.0
26/10:30am 15.6 14.8 9.7 68 3.1 NNW 4 6 2 3 - - 0.0
26/10:00am 14.5 14.0 9.3 71 2.7 SSW 2 6 1 3 - - 0.0
26/09:30am 13.4 13.6 10.6 83 1.5 CALM 0 4 0 2 - - 0.0
26/09:00am 12.9 13.0 11.5 91 0.7 NNE 2 4 1 2 - - 0.0
26/08:30am 10.1 9.0 9.8 98 0.2 NNE 6 7 3 4 - - 0.0
26/08:00am 9.4 8.1 9.1 98 0.1 NW 6 7 3 4 - - 0.0
26/07:30am 7.5 6.9 7.2 98 0.1 CALM 0 0 0 0 - - 0.0
26/07:00am 6.8 5.6 6.5 98 0.1 WSW 2 2 1 1 - - 0.0
26/06:30am 6.7 5.5 6.4 98 0.1 SSW 2 4 1 2 - - 0.0
26/06:00am 6.8 5.6 6.5 98 0.1 S 2 4 1 2 - - 0.0
26/05:30am 6.8 6.0 6.5 98 0.1 CALM 0 0 0 0 - - 0.0
26/05:00am 7.3 6.2 7.0 98 0.1 W 2 4 1 2 - - 0.0
26/04:30am 7.5 6.9 7.2 98 0.1 CALM 0 0 0 0 - - 0.0
26/04:00am 7.4 6.0 7.1 98 0.1 WSW 4 6 2 3 - - 0.0
26/03:30am 7.5 6.9 7.2 98 0.1 CALM 0 0 0 0 - - 0.0
26/03:00am 7.6 5.8 7.3 98 0.1 S 6 6 3 3 - - 0.0
26/02:30am 8.0 6.7 7.7 98 0.1 SSW 4 6 2 3 - - 0.0
26/02:00am 8.6 8.2 8.3 98 0.1 CALM 0 4 0 2 - - 0.0
26/01:30am 8.8 7.7 8.5 98 0.1 NNE 4 4 2 2 - - 0.0
26/01:00am 8.3 7.5 8.0 98 0.1 N 2 6 1 3 - - 0.0
26/12:30am 9.2 9.0 8.9 98 0.1 CALM 0 0 0 0 - - 0.0
26/12:00am 9.1 8.5 8.8 98 0.1 S 2 4 1 2 - - 0.0
 
Date/Time
EST
Temp
°C
App
Temp
°C
Dew
Point
°C
Rel
Hum
%
Delta-T
°C
Wind Press
QNH
hPa
Press
MSL
hPa
Rain since
9am
mm
Dir  Spd
km/h
Gust
km/h
Spd
kts
Gust
kts
25/11:30pm 9.8 9.3 9.5 98 0.1 S 2 6 1 3 - - 0.0
25/11:00pm 10.0 9.6 9.7 98 0.2 SSW 2 4 1 2 - - 0.0
25/10:30pm 9.8 8.5 9.2 96 0.3 SW 6 7 3 4 - - 0.0
25/10:00pm 10.4 9.1 9.3 93 0.5 S 6 7 3 4 - - 0.0
25/09:30pm 10.8 10.0 9.7 93 0.6 ESE 4 6 2 3 - - 0.0
25/09:00pm 11.5 10.8 10.1 91 0.7 S 4 6 2 3 - - 0.0
25/08:30pm 11.9 11.1 9.6 86 1.2 WSW 4 7 2 4 - - 0.0
25/08:00pm 12.2 11.2 8.9 80 1.7 WNW 4 7 2 4 - - 0.0
25/07:30pm 12.4 11.7 10.1 86 1.2 WSW 4 7 2 4 - - 0.0
25/07:00pm 13.1 13.2 10.1 82 1.5 CALM 0 0 0 0 - - 0.0
25/06:30pm 13.3 12.3 9.0 75 2.2 WNW 4 6 2 3 - - 0.0
25/06:00pm 13.9 13.7 10.3 79 1.9 N 2 4 1 2 - - 0.0
25/05:30pm 13.9 13.1 11.1 83 1.5 N 6 6 3 3 - - 0.0
25/05:00pm 15.6 14.3 9.3 66 3.3 NW 6 6 3 3 - - 0.0
25/04:30pm 18.0 16.8 9.4 57 4.5 NNW 6 9 3 5 - - 0.0
25/04:00pm 19.1 16.7 7.2 46 6.0 NNE 9 11 5 6 - - 0.0
25/03:30pm 19.8 18.2 7.9 46 6.1 N 6 13 3 7 - - 0.0
25/03:00pm 20.0 18.1 7.4 44 6.4 NNE 7 13 4 7 - - 0.0
25/02:30pm 20.2 18.9 7.6 44 6.5 NW 4 7 2 4 - - 0.0
25/02:00pm 19.9 18.2 7.6 45 6.3 ESE 6 9 3 5 - - 0.0
25/01:30pm 20.3 19.1 8.0 45 6.4 N 4 9 2 5 - - 0.0
25/01:00pm 19.7 17.9 8.1 47 6.0 N 7 9 4 5 - - 0.0
25/12:30pm 19.1 17.7 8.7 51 5.4 NNW 6 9 3 5 - - 0.0
25/12:00pm 18.5 17.3 9.6 56 4.7 NNW 6 9 3 5 - - 0.0
25/11:30am 17.9 17.1 9.5 58 4.4 WNW 4 7 2 4 - - 0.0
25/11:00am 17.0 16.0 8.9 59 4.2 N 4 7 2 4 - - 0.0
25/10:30am 15.6 14.9 8.6 63 3.6 S 2 6 1 3 - - 0.0
25/10:00am 14.9 14.7 9.1 68 3.0 CALM 0 4 0 2 - - 0.0
25/09:30am 13.6 13.3 8.7 72 2.5 CALM 0 0 0 0 - - 0.0
25/09:00am 12.7 12.2 9.3 80 1.7 N 2 4 1 2 - - 0.0
25/08:30am 11.5 11.2 10.2 92 0.7 NE 2 4 1 2 - - 0.0
25/08:00am 9.3 8.3 9.0 98 0.1 SSW 4 4 2 2 - - 0.0
25/07:30am 8.0 6.7 7.7 98 0.1 S 4 4 2 2 - - 0.0
25/07:00am 7.4 6.7 7.1 98 0.1 CALM 0 0 0 0 - - 0.0
25/06:30am 7.5 6.9 7.2 98 0.1 CALM 0 0 0 0 - - 0.0
25/06:00am 7.3 6.2 7.0 98 0.1 NNE 2 6 1 3 - - 0.0
25/05:30am 7.5 6.5 7.2 98 0.1 NE 2 4 1 2 - - 0.0
25/05:00am 7.7 7.1 7.4 98 0.1 CALM 0 2 0 1 - - 0.0
25/04:30am 8.4 7.6 8.1 98 0.1 S 2 6 1 3 - - 0.0
25/04:00am 8.1 7.6 7.8 98 0.1 CALM 0 0 0 0 - - 0.0
25/03:30am 8.2 7.7 7.9 98 0.1 CALM 0 0 0 0 - - 0.0
25/03:00am 9.2 8.6 8.9 98 0.1 SSW 2 4 1 2 - - 0.0
25/02:30am 9.4 8.8 7.2 86 1.0 CALM 0 2 0 1 - - 0.0
25/02:00am 9.7 8.6 7.0 83 1.3 N 2 6 1 3 - - 0.0
25/01:30am 10.4 9.1 7.6 83 1.3 N 4 4 2 2 - - 0.0
25/01:00am 11.3 10.0 7.6 78 1.8 NNW 4 6 2 3 - - 0.0
25/12:30am 11.9 10.7 6.6 70 2.5 E 2 6 1 3 - - 0.0
25/12:00am 13.4 12.0 7.2 66 3.0 SSW 4 6 2 3 - - 0.0

Other Formats:

Comma delimited format used in spreadsheet applications
http://www.bom.gov.au/fwo/IDN60801/IDN60801.94763.axf

JavaScript Object Notation format (JSON) in row-major order
http://www.bom.gov.au/fwo/IDN60801/IDN60801.94763.json